createdAt,value
2019-04-29T00:00:50.529Z,58.83
2019-04-29T00:03:19.677Z,72.72
2019-04-29T00:05:48.361Z,73.97
2019-04-29T00:08:17.124Z,69.58
2019-04-29T00:10:46.104Z,66.80
2019-04-29T00:13:15.122Z,59.93
2019-04-29T00:16:04.099Z,72.72
2019-04-29T00:18:44.986Z,71.72
2019-04-29T00:21:13.893Z,81.55
2019-04-29T00:23:42.599Z,70.42
2019-04-29T00:26:11.132Z,78.10
2019-04-29T00:28:40.226Z,75.80
2019-04-29T00:31:08.666Z,72.30
2019-04-29T00:33:38.485Z,70.62
2019-04-29T00:36:08.902Z,66.53
2019-04-29T00:38:58.615Z,76.35
2019-04-29T00:41:46.689Z,61.33
2019-04-29T00:44:16.364Z,68.67
2019-04-29T00:46:45.474Z,64.67
2019-04-29T00:49:14.174Z,57.53
2019-04-29T00:51:42.598Z,73.12
2019-04-29T00:54:30.894Z,70.20
2019-04-29T00:56:59.279Z,68.35
2019-04-29T00:59:27.975Z,72.22
2019-04-29T01:01:56.825Z,73.22
2019-04-29T01:04:25.638Z,65.22
2019-04-29T01:06:54.422Z,78.25
2019-04-29T01:09:24.593Z,69.60
2019-04-29T01:11:53.207Z,81.15
2019-04-29T01:14:21.988Z,67.12
2019-04-29T01:16:50.707Z,65.83
2019-04-29T01:19:19.719Z,74.97
2019-04-29T01:21:49.361Z,62.70
2019-04-29T01:24:18.125Z,74.85
2019-04-29T01:27:12.372Z,80.45
2019-04-29T01:29:41.201Z,71.30
2019-04-29T01:32:10.202Z,89.72
2019-04-29T01:34:54.239Z,79.32
2019-04-29T01:37:49.851Z,82.05
2019-04-29T01:40:38.885Z,75.20
2019-04-29T01:43:07.320Z,96.15
2019-04-29T01:45:35.944Z,90.90
2019-04-29T01:48:04.594Z,81.10
2019-04-29T01:50:32.948Z,102.67
2019-04-29T01:53:01.678Z,87.90
2019-04-29T01:55:30.072Z,89.90
2019-04-29T01:57:58.717Z,73.40
2019-04-29T02:00:27.126Z,77.53
2019-04-29T02:02:55.919Z,86.92
2019-04-29T02:05:24.478Z,75.67
2019-04-29T02:07:53.471Z,81.47
2019-04-29T02:10:30.791Z,73.50
2019-04-29T02:12:59.407Z,95.95
2019-04-29T02:15:28.178Z,73.67
2019-04-29T02:17:56.912Z,86.47
2019-04-29T02:20:25.544Z,78.87
2019-04-29T02:23:12.655Z,92.53
2019-04-29T02:25:42.735Z,74.00
2019-04-29T02:28:11.179Z,77.12
2019-04-29T02:30:42.935Z,84.72
2019-04-29T02:33:11.593Z,75.95
2019-04-29T02:35:40.688Z,72.25
2019-04-29T02:38:13.943Z,90.12
2019-04-29T02:40:51.865Z,103.80
2019-04-29T02:43:24.434Z,83.00
2019-04-29T02:45:53.075Z,83.78
2019-04-29T02:48:21.648Z,82.12
2019-04-29T02:50:50.335Z,90.70
2019-04-29T02:53:18.896Z,88.78
2019-04-29T02:55:50.840Z,91.87
2019-04-29T02:58:35.287Z,90.80
2019-04-29T03:01:23.321Z,86.70
2019-04-29T03:04:02.656Z,87.10
2019-04-29T03:06:31.236Z,78.52
2019-04-29T03:08:59.960Z,84.60
2019-04-29T03:11:30.213Z,81.22
2019-04-29T03:13:58.664Z,85.45
2019-04-29T03:16:27.519Z,82.67
2019-04-29T03:19:00.896Z,83.05
2019-04-29T03:21:46.884Z,74.35
2019-04-29T03:24:15.575Z,74.20
2019-04-29T03:26:44.151Z,87.25
2019-04-29T03:29:22.031Z,80.30
2019-04-29T03:31:53.034Z,67.08
2019-04-29T03:34:22.098Z,77.27
2019-04-29T03:36:51.753Z,88.62
2019-04-29T03:39:20.454Z,83.55
2019-04-29T03:41:51.263Z,87.10
2019-04-29T03:44:19.760Z,79.12
2019-04-29T03:46:48.687Z,89.52
2019-04-29T03:49:17.068Z,78.25
2019-04-29T03:51:45.665Z,83.27
2019-04-29T03:54:14.418Z,84.90
2019-04-29T03:56:44.284Z,68.92
2019-04-29T03:59:12.726Z,76.67
2019-04-29T04:01:52.334Z,80.67
2019-04-29T04:04:39.264Z,88.03
2019-04-29T04:07:37.634Z,82.05
2019-04-29T04:10:07.839Z,79.70
2019-04-29T04:12:36.352Z,89.60
2019-04-29T04:15:05.409Z,89.05
2019-04-29T04:17:40.297Z,81.70
2019-04-29T04:20:09.545Z,79.42
2019-04-29T04:22:47.749Z,77.87
2019-04-29T04:25:17.361Z,79.90
2019-04-29T04:27:46.239Z,86.40
2019-04-29T04:30:15.256Z,77.80
2019-04-29T04:32:44.390Z,67.15
2019-04-29T04:35:13.589Z,85.90
2019-04-29T04:40:17.480Z,78.80
2019-04-29T04:42:48.299Z,84.80
2019-04-29T04:45:17.432Z,85.62
2019-04-29T04:47:46.062Z,79.90
2019-04-29T04:50:15.034Z,77.67
2019-04-29T04:52:43.854Z,83.42
2019-04-29T04:55:13.367Z,88.90
2019-04-29T04:57:42.049Z,98.15
2019-04-29T05:00:20.280Z,97.80
2019-04-29T05:02:49.050Z,106.05
2019-04-29T05:05:22.331Z,103.60
2019-04-29T05:07:52.388Z,107.40
2019-04-29T05:10:21.428Z,107.83
2019-04-29T05:12:50.134Z,114.47
2019-04-29T05:15:18.799Z,122.78
2019-04-29T05:17:48.254Z,129.40
2019-04-29T05:20:17.541Z,122.45
2019-04-29T05:23:01.078Z,122.53
2019-04-29T05:25:32.608Z,135.95
2019-04-29T05:30:29.739Z,117.85
2019-04-29T05:32:58.646Z,116.77
2019-04-29T05:35:40.434Z,133.70
2019-04-29T05:38:24.253Z,117.40
2019-04-29T05:40:56.824Z,111.55
2019-04-29T05:43:35.165Z,98.52
2019-04-29T05:46:21.741Z,106.07
2019-04-29T05:48:49.424Z,104.55
2019-04-29T05:51:49.828Z,106.10
2019-04-29T05:54:18.998Z,89.52
2019-04-29T05:56:47.698Z,84.47
2019-04-29T05:59:16.935Z,92.15
2019-04-29T06:01:47.192Z,80.72
2019-04-29T06:04:18.045Z,72.67
2019-04-29T06:06:46.825Z,71.97
2019-04-29T06:09:16.629Z,62.25
2019-04-29T06:11:46.269Z,67.80
2019-04-29T06:14:14.793Z,62.13
2019-04-29T06:16:43.909Z,61.00
2019-04-29T06:19:12.407Z,66.62
2019-04-29T06:21:44.980Z,54.08
2019-04-29T06:24:13.771Z,48.42
2019-04-29T06:26:43.708Z,55.45
2019-04-29T06:29:12.588Z,56.68
2019-04-29T06:31:41.451Z,52.13
2019-04-29T06:34:09.978Z,53.92
2019-04-29T06:36:38.872Z,47.83
2019-04-29T06:39:08.088Z,59.65
2019-04-29T06:41:40.498Z,53.63
2019-04-29T06:44:15.943Z,50.38
2019-04-29T06:49:10.862Z,56.53
2019-04-29T06:51:40.400Z,47.85
2019-04-29T06:54:09.576Z,44.98
2019-04-29T06:56:38.412Z,48.77
2019-04-29T06:59:07.588Z,48.80
2019-04-29T07:01:38.668Z,44.88
2019-04-29T07:04:07.489Z,52.13
2019-04-29T07:06:36.604Z,44.88
2019-04-29T07:09:06.556Z,51.58
2019-04-29T07:11:36.514Z,45.70
2019-04-29T07:14:06.541Z,47.08
2019-04-29T07:16:36.047Z,41.63
2019-04-29T07:19:04.871Z,43.73
2019-04-29T07:21:33.869Z,45.40
2019-04-29T07:24:02.957Z,45.65
2019-04-29T07:26:32.104Z,48.48
2019-04-29T07:29:02.152Z,48.75
2019-04-29T07:31:33.187Z,64.67
2019-04-29T07:34:01.911Z,53.52
2019-04-29T07:36:31.180Z,52.60
2019-04-29T07:39:00.128Z,67.08
2019-04-29T07:41:32.020Z,62.20
2019-04-29T07:44:02.554Z,54.73
2019-04-29T07:47:01.825Z,66.02
2019-04-29T07:49:24.669Z,90.25
2019-04-29T07:51:53.533Z,78.92
2019-04-29T07:54:22.766Z,83.30
2019-04-29T07:56:52.088Z,89.52
2019-04-29T07:59:20.938Z,90.83
2019-04-29T08:01:49.646Z,79.32
2019-04-29T08:04:19.070Z,84.58
2019-04-29T08:06:48.081Z,72.72
2019-04-29T08:09:17.119Z,67.47
2019-04-29T08:11:47.496Z,69.27
2019-04-29T08:14:18.165Z,76.67
2019-04-29T08:16:47.420Z,71.97
2019-04-29T08:19:16.598Z,61.05
2019-04-29T08:21:49.616Z,61.37
2019-04-29T08:24:17.047Z,48.30
2019-04-29T08:26:47.750Z,63.50
2019-04-29T08:31:44.964Z,71.20
2019-04-29T08:34:14.145Z,62.05
2019-04-29T08:36:43.858Z,59.88
2019-04-29T08:39:15.119Z,52.17
2019-04-29T08:41:45.214Z,64.32
2019-04-29T08:44:38.339Z,56.08
2019-04-29T08:47:18.061Z,57.65
2019-04-29T08:49:47.062Z,62.17
2019-04-29T08:52:16.546Z,65.97
2019-04-29T08:54:45.255Z,60.73
2019-04-29T08:57:14.231Z,57.08
2019-04-29T08:59:43.556Z,48.92
2019-04-29T09:02:12.481Z,59.13
2019-04-29T09:04:52.739Z,45.50
2019-04-29T09:09:41.957Z,45.90
2019-04-29T09:12:10.629Z,36.65
2019-04-29T09:14:39.897Z,43.63
2019-04-29T09:17:19.729Z,39.60
2019-04-29T09:19:39.631Z,38.60
2019-04-29T09:22:10.027Z,39.33
2019-04-29T09:24:43.588Z,41.30
2019-04-29T09:27:16.794Z,42.30
2019-04-29T09:29:46.513Z,38.58
2019-04-29T09:32:15.147Z,42.58
2019-04-29T09:34:43.683Z,35.35
2019-04-29T09:37:12.516Z,28.20
2019-04-29T09:39:43.930Z,28.57
2019-04-29T09:42:31.003Z,31.45
2019-04-29T09:45:24.054Z,26.10
2019-04-29T09:47:51.967Z,25.97
2019-04-29T09:50:20.971Z,31.45
2019-04-29T09:52:49.839Z,26.80
2019-04-29T09:55:20.311Z,30.48
2019-04-29T09:57:49.733Z,32.65
2019-04-29T10:00:29.763Z,30.10
2019-04-29T10:03:11.380Z,28.25
2019-04-29T10:05:50.209Z,26.60
2019-04-29T10:08:18.912Z,27.17
2019-04-29T10:10:47.828Z,27.77
2019-04-29T10:13:17.072Z,31.57
2019-04-29T10:16:03.642Z,31.33
2019-04-29T10:18:47.999Z,25.02
2019-04-29T10:21:21.589Z,31.73
2019-04-29T10:23:48.115Z,29.98
2019-04-29T10:26:17.389Z,28.85
2019-04-29T10:28:52.835Z,26.73
2019-04-29T10:31:21.692Z,33.33
2019-04-29T10:33:54.678Z,28.55
2019-04-29T10:36:21.917Z,35.98
2019-04-29T10:38:52.709Z,24.02
2019-04-29T10:41:31.674Z,27.48
2019-04-29T10:44:22.220Z,30.27
2019-04-29T10:47:24.026Z,26.30
2019-04-29T10:49:57.945Z,35.90
2019-04-29T10:52:27.070Z,30.25
2019-04-29T10:54:56.751Z,26.30
2019-04-29T10:57:29.012Z,27.70
2019-04-29T11:00:02.901Z,25.40
2019-04-29T11:02:38.777Z,32.88
2019-04-29T11:05:57.415Z,27.00
2019-04-29T11:08:25.228Z,29.12
2019-04-29T11:11:02.135Z,33.92
2019-04-29T11:13:25.469Z,28.00
2019-04-29T11:15:54.068Z,26.82
2019-04-29T11:18:25.049Z,30.55
2019-04-29T11:20:55.529Z,29.23
2019-04-29T11:23:42.123Z,29.15
2019-04-29T11:26:30.334Z,26.77
2019-04-29T11:28:59.862Z,23.60
2019-04-29T11:31:29.940Z,37.10
2019-04-29T11:34:18.329Z,28.38
2019-04-29T11:36:47.496Z,28.42
2019-04-29T11:39:16.972Z,26.93
2019-04-29T11:41:45.449Z,25.37
2019-04-29T11:44:14.349Z,26.70
2019-04-29T11:46:44.545Z,26.87
2019-04-29T11:49:16.916Z,26.25
2019-04-29T11:52:08.690Z,31.52
2019-04-29T11:54:19.979Z,32.83
2019-04-29T11:56:48.895Z,29.37
2019-04-29T11:59:35.917Z,26.52
2019-04-29T12:02:44.763Z,23.70
2019-04-29T12:05:31.595Z,33.53
2019-04-29T12:08:03.810Z,24.60
2019-04-29T12:10:31.728Z,26.87
2019-04-29T12:13:03.043Z,33.45
2019-04-29T12:15:40.126Z,28.87
2019-04-29T12:18:23.740Z,22.48
2019-04-29T12:21:04.615Z,23.83
2019-04-29T12:23:33.731Z,33.00
2019-04-29T12:26:04.967Z,21.05
2019-04-29T12:28:37.937Z,23.50
2019-04-29T12:31:12.764Z,23.10
2019-04-29T12:33:47.401Z,23.50
2019-04-29T12:36:16.645Z,21.93
2019-04-29T12:39:04.049Z,20.37
2019-04-29T12:41:51.394Z,19.23
2019-04-29T12:44:35.051Z,19.77
2019-04-29T12:46:59.011Z,27.27
2019-04-29T12:49:29.855Z,21.97
2019-04-29T12:52:00.264Z,22.98
2019-04-29T12:54:29.846Z,28.05
2019-04-29T12:56:58.805Z,22.00
2019-04-29T12:59:30.598Z,23.60
2019-04-29T13:02:19.979Z,26.40
2019-04-29T13:05:15.948Z,40.52
2019-04-29T13:08:09.861Z,21.57
2019-04-29T13:10:47.967Z,25.80
2019-04-29T13:13:20.139Z,20.45
2019-04-29T13:16:07.954Z,19.60
2019-04-29T13:18:48.991Z,19.10
2019-04-29T13:21:16.248Z,23.87
2019-04-29T13:23:59.041Z,22.45
2019-04-29T13:26:27.324Z,20.68
2019-04-29T13:28:58.863Z,19.95
2019-04-29T13:31:20.149Z,26.33
2019-04-29T13:33:51.059Z,24.15
2019-04-29T13:36:26.257Z,18.00
2019-04-29T13:38:50.535Z,27.58
2019-04-29T13:41:24.423Z,22.60
2019-04-29T13:43:52.513Z,20.35
2019-04-29T13:46:33.513Z,20.32
2019-04-29T13:49:20.886Z,23.30
2019-04-29T13:51:52.321Z,28.27
2019-04-29T13:54:22.789Z,26.17
2019-04-29T13:56:55.911Z,18.87
2019-04-29T13:59:49.126Z,26.10
2019-04-29T14:02:31.176Z,30.70
2019-04-29T14:05:00.185Z,21.97
2019-04-29T14:07:30.189Z,27.82
2019-04-29T14:09:59.300Z,21.17
2019-04-29T14:15:00.308Z,21.42
2019-04-29T14:17:31.812Z,25.32
2019-04-29T14:20:00.948Z,18.35
2019-04-29T14:22:30.187Z,25.72
2019-04-29T14:24:58.650Z,20.05
2019-04-29T14:27:27.757Z,25.20
2019-04-29T14:29:56.222Z,20.23
2019-04-29T14:32:35.912Z,24.90
2019-04-29T14:35:11.843Z,20.90
2019-04-29T14:37:54.424Z,26.55
2019-04-29T14:43:27.167Z,26.37
2019-04-29T14:45:55.696Z,26.35
2019-04-29T14:48:41.770Z,21.40
2019-04-29T14:51:01.082Z,29.70
2019-04-29T14:53:31.744Z,28.45
2019-04-29T14:58:30.119Z,13.68
2019-04-29T15:01:36.281Z,19.75
2019-04-29T15:04:18.055Z,16.80
2019-04-29T15:06:39.038Z,19.73
2019-04-29T15:09:16.751Z,18.23
2019-04-29T15:11:59.695Z,15.08
2019-04-29T15:15:02.244Z,19.52
2019-04-29T15:18:15.531Z,18.57
2019-04-29T15:21:06.228Z,24.30
2019-04-29T15:23:33.453Z,20.37
2019-04-29T15:26:02.281Z,26.02
2019-04-29T15:28:33.969Z,23.20
2019-04-29T15:31:02.543Z,23.22
2019-04-29T15:33:34.736Z,21.15
2019-04-29T15:36:04.923Z,20.20
2019-04-29T15:38:34.091Z,16.73
2019-04-29T15:41:05.454Z,30.85
2019-04-29T15:43:46.429Z,19.30
2019-04-29T15:46:11.447Z,15.75
2019-04-29T15:48:38.028Z,18.90
2019-04-29T15:51:09.111Z,18.17
2019-04-29T15:53:39.005Z,24.00
2019-04-29T15:58:42.295Z,20.65
2019-04-29T16:01:17.102Z,15.80
2019-04-29T16:03:41.962Z,14.25
2019-04-29T16:06:33.908Z,16.50
2019-04-29T16:09:30.428Z,21.12
2019-04-29T16:12:20.860Z,21.12
2019-04-29T16:14:49.705Z,17.20
2019-04-29T16:17:20.641Z,23.67
2019-04-29T16:19:48.324Z,20.10
2019-04-29T16:22:20.059Z,20.75
2019-04-29T16:24:46.983Z,24.98
2019-04-29T16:27:15.731Z,20.02
2019-04-29T16:29:46.297Z,24.15
2019-04-29T16:32:23.933Z,22.55
2019-04-29T16:34:52.392Z,21.27
2019-04-29T16:37:24.950Z,21.87
2019-04-29T16:39:52.775Z,19.15
2019-04-29T16:42:31.597Z,28.87
2019-04-29T16:45:00.051Z,26.77
2019-04-29T16:47:29.827Z,25.43
2019-04-29T16:50:04.588Z,23.27
2019-04-29T16:52:29.409Z,24.02
2019-04-29T16:54:59.103Z,23.52
2019-04-29T16:57:31.509Z,36.70
2019-04-29T17:00:00.195Z,28.07
2019-04-29T17:02:30.607Z,22.00
2019-04-29T17:04:59.398Z,24.47
2019-04-29T17:07:30.765Z,21.40
2019-04-29T17:10:17.475Z,31.55
2019-04-29T17:12:49.179Z,30.17
2019-04-29T17:15:25.021Z,27.75
2019-04-29T17:17:48.685Z,31.77
2019-04-29T17:20:17.563Z,25.32
2019-04-29T17:22:46.034Z,28.90
2019-04-29T17:25:16.648Z,25.70
2019-04-29T17:30:56.051Z,25.05
2019-04-29T17:35:13.769Z,13.75
2019-04-29T17:35:14.860Z,31.93
2019-04-29T17:36:11.519Z,35.63
2019-04-29T17:38:40.686Z,23.65
2019-04-29T17:41:09.176Z,25.95
2019-04-29T17:43:47.687Z,26.30
2019-04-29T17:46:38.477Z,27.13
2019-04-29T17:49:28.220Z,29.65
2019-04-29T17:52:01.477Z,26.02
2019-04-29T17:54:29.847Z,33.48
2019-04-29T17:57:26.403Z,29.37
2019-04-29T18:00:05.130Z,33.65
2019-04-29T18:02:45.554Z,29.45
2019-04-29T18:05:54.470Z,29.85
2019-04-29T18:08:19.455Z,24.85
2019-04-29T18:10:52.370Z,27.93
2019-04-29T18:13:24.587Z,32.30
2019-04-29T18:16:01.638Z,22.75
2019-04-29T18:18:43.193Z,25.40
2019-04-29T18:21:28.097Z,26.85
2019-04-29T18:24:12.750Z,32.93
2019-04-29T18:26:52.698Z,25.82
2019-04-29T18:29:21.472Z,31.42
2019-04-29T18:31:50.272Z,32.95
2019-04-29T18:34:18.860Z,40.15
2019-04-29T18:36:47.761Z,29.07
2019-04-29T18:39:24.979Z,27.65
2019-04-29T18:41:51.161Z,36.30
2019-04-29T18:44:20.100Z,48.23
2019-04-29T18:46:53.630Z,39.35
2019-04-29T18:49:19.631Z,40.15
2019-04-29T18:51:48.357Z,32.88
2019-04-29T18:54:17.092Z,29.77
2019-04-29T18:56:45.720Z,31.00
2019-04-29T18:59:15.991Z,28.40
2019-04-29T19:01:47.680Z,36.83
2019-04-29T19:04:53.396Z,35.85
2019-04-29T19:07:20.338Z,32.28
2019-04-29T19:09:49.086Z,41.20
2019-04-29T19:12:17.826Z,38.73
2019-04-29T19:14:47.851Z,32.73
2019-04-29T19:17:16.973Z,48.87
2019-04-29T19:19:45.623Z,34.45
2019-04-29T19:22:15.686Z,54.40
2019-04-29T19:24:46.542Z,47.50
2019-04-29T19:27:15.054Z,42.20
2019-04-29T19:29:44.617Z,45.98
2019-04-29T19:32:13.406Z,33.65
2019-04-29T19:34:43.334Z,50.48
